Time;durP1;ratioP1;P1;durP2;ratioP2;P2;SDS_P1;SDS_P2;PMS_P1;PMS_P2;Temp;Humidity;BMP_temperature;BMP_pressure;BME280_temperature;BME280_humidity;BME280_pressure;Samples;Min_cycle;Max_cycle;Signal;HPM_P1;HPM_P2
2023/12/27 00:02:02;;;;;;;8.77;1.88;;;4.50;99.90;;;;;;5037238;28;20040;-76
2023/12/27 00:04:28;;;;;;;10.07;3.30;;;4.60;99.90;;;;;;5037467;28;20111;-76
2023/12/27 00:06:55;;;;;;;7.45;2.65;;;4.60;99.90;;;;;;5036841;28;20048;-76
2023/12/27 00:09:20;;;;;;;10.07;2.30;;;4.60;99.90;;;;;;5055077;28;20045;-76
2023/12/27 00:11:46;;;;;;;5.63;2.03;;;4.40;99.90;;;;;;5036958;28;20428;-76
2023/12/27 00:14:12;;;;;;;13.45;3.45;;;4.50;99.90;;;;;;5054717;28;20048;-76
2023/12/27 00:16:37;;;;;;;6.22;2.58;;;4.50;99.90;;;;;;5036719;28;20045;-76
2023/12/27 00:19:03;;;;;;;8.60;3.13;;;4.50;99.90;;;;;;5036830;28;20037;-76
2023/12/27 00:21:29;;;;;;;6.82;3.05;;;4.40;99.90;;;;;;5054777;28;20037;-76
2023/12/27 00:23:55;;;;;;;6.55;2.60;;;4.40;99.90;;;;;;5036753;28;20040;-76
2023/12/27 00:26:20;;;;;;;13.27;4.03;;;4.30;99.90;;;;;;5036863;28;20037;-76
2023/12/27 00:28:46;;;;;;;5.15;2.05;;;4.30;99.90;;;;;;5036423;28;20554;-76
2023/12/27 00:31:12;;;;;;;9.57;2.38;;;4.40;99.90;;;;;;5037035;28;20094;-76
2023/12/27 00:33:38;;;;;;;9.32;2.03;;;4.40;99.90;;;;;;5036626;28;20087;-76
2023/12/27 00:36:04;;;;;;;8.07;2.92;;;4.30;99.90;;;;;;5054375;28;20065;-76
2023/12/27 00:38:30;;;;;;;9.82;1.88;;;4.40;99.90;;;;;;5054433;28;20036;-76
2023/12/27 00:40:55;;;;;;;7.85;2.65;;;4.50;99.90;;;;;;5054368;28;20037;-76
2023/12/27 00:43:21;;;;;;;4.57;2.42;;;4.30;99.90;;;;;;5036949;28;20040;-76
2023/12/27 00:45:47;;;;;;;7.22;2.33;;;4.40;99.90;;;;;;5036368;28;20041;-76
2023/12/27 00:48:12;;;;;;;6.35;2.28;;;4.40;99.90;;;;;;5053963;28;20111;-76
2023/12/27 00:50:38;;;;;;;11.52;2.13;;;4.50;99.90;;;;;;5036388;28;20040;-76
2023/12/27 00:53:04;;;;;;;6.95;2.10;;;4.40;99.90;;;;;;5036544;28;20507;-76
2023/12/27 00:55:29;;;;;;;13.27;2.45;;;4.50;99.90;;;;;;5036180;28;20029;-76
2023/12/27 00:57:55;;;;;;;5.53;1.98;;;4.40;99.90;;;;;;5036051;28;20117;-76
2023/12/27 01:00:20;;;;;;;7.78;2.58;;;4.40;99.90;;;;;;5053882;28;20044;-76
2023/12/27 01:02:46;;;;;;;7.22;3.35;;;4.40;99.90;;;;;;5035215;28;20052;-76
2023/12/27 01:05:12;;;;;;;4.75;1.67;;;4.50;99.90;;;;;;5053487;28;20048;-76
2023/12/27 01:07:37;;;;;;;4.75;2.05;;;4.40;99.90;;;;;;5035673;28;20037;-76
2023/12/27 01:10:04;;;;;;;7.65;2.10;;;4.50;99.90;;;;;;5035916;28;20401;-76
2023/12/27 01:12:29;;;;;;;12.57;2.50;;;4.30;99.90;;;;;;5035856;28;20124;-76
2023/12/27 01:14:55;;;;;;;12.95;2.88;;;4.50;99.90;;;;;;5053453;28;20121;-76
2023/12/27 01:17:21;;;;;;;10.98;2.80;;;4.40;99.90;;;;;;5035682;28;20451;-76
2023/12/27 01:19:46;;;;;;;6.78;2.28;;;4.40;99.90;;;;;;5053606;28;20048;-76
2023/12/27 01:22:12;;;;;;;6.18;2.33;;;4.30;99.90;;;;;;5053652;28;20107;-76
2023/12/27 01:24:37;;;;;;;8.55;2.10;;;4.30;99.90;;;;;;5018926;28;20032;-76
2023/12/27 01:27:04;;;;;;;5.28;1.70;;;4.20;99.90;;;;;;5035510;28;20110;-76
2023/12/27 01:29:30;;;;;;;14.93;2.85;;;4.20;99.90;;;;;;5035482;28;20128;-76
2023/12/27 01:31:55;;;;;;;9.50;2.35;;;4.20;99.90;;;;;;5053364;28;20068;-76
2023/12/27 01:34:21;;;;;;;6.25;2.30;;;4.10;99.90;;;;;;5035232;28;20037;-76
2023/12/27 01:36:46;;;;;;;8.70;2.05;;;4.20;99.90;;;;;;5053041;28;20147;-76
2023/12/27 01:39:12;;;;;;;8.27;1.98;;;4.00;99.90;;;;;;5035476;28;20074;-76
2023/12/27 01:41:37;;;;;;;10.15;1.80;;;4.10;99.90;;;;;;5018762;28;20083;-76
2023/12/27 01:44:03;;;;;;;9.65;3.40;;;4.10;99.90;;;;;;5035202;28;20710;-76
2023/12/27 01:46:30;;;;;;;5.50;1.98;;;4.00;99.90;;;;;;5052865;28;20051;-76
2023/12/27 01:48:57;;;;;;;8.68;1.63;;;4.10;99.90;;;;;;5034672;28;20559;-76
2023/12/27 01:51:23;;;;;;;7.82;2.28;;;4.20;99.90;;;;;;5018779;28;20063;-76
2023/12/27 01:53:50;;;;;;;5.47;1.70;;;4.00;99.90;;;;;;5035235;28;20446;-76
2023/12/27 01:56:16;;;;;;;13.98;2.47;;;4.00;99.90;;;;;;5034923;28;20072;-76
2023/12/27 01:58:41;;;;;;;8.10;2.08;;;4.20;99.90;;;;;;5018121;28;20138;-76
2023/12/27 02:01:07;;;;;;;5.40;1.88;;;4.10;99.90;;;;;;5034908;28;20039;-76
2023/12/27 02:03:33;;;;;;;6.05;2.10;;;4.00;99.90;;;;;;5034774;28;20090;-76
2023/12/27 02:05:59;;;;;;;5.40;1.60;;;4.00;99.90;;;;;;5034743;28;20048;-76
2023/12/27 02:08:26;;;;;;;11.52;2.22;;;4.10;99.90;;;;;;5034501;28;20048;-76
2023/12/27 02:10:52;;;;;;;4.75;2.13;;;4.00;99.90;;;;;;5034740;28;20041;-76
2023/12/27 02:13:19;;;;;;;8.88;2.50;;;4.00;99.90;;;;;;5034653;28;20590;-76
2023/12/27 02:15:46;;;;;;;8.30;2.42;;;4.00;99.90;;;;;;5034333;28;20033;-76
2023/12/27 02:18:14;;;;;;;4.13;1.40;;;3.90;99.90;;;;;;5034162;28;20041;-76
2023/12/27 02:20:40;;;;;;;8.35;3.60;;;3.80;99.90;;;;;;5034971;28;20072;-76
2023/12/27 02:23:10;;;;;;;6.68;2.47;;;3.90;99.90;;;;;;5034738;28;20080;-76
2023/12/27 02:25:35;;;;;;;7.88;2.53;;;3.80;99.90;;;;;;5053446;28;20044;-76
2023/12/27 02:28:01;;;;;;;14.57;2.10;;;3.90;99.90;;;;;;5054034;28;20036;-76
2023/12/27 02:30:27;;;;;;;4.45;1.65;;;3.80;99.90;;;;;;5054229;28;20048;-76
2023/12/27 02:32:52;;;;;;;6.07;1.95;;;3.80;99.90;;;;;;5054456;28;20044;-76
2023/12/27 02:35:18;;;;;;;5.07;1.95;;;3.70;99.90;;;;;;5037615;28;20068;-76
2023/12/27 02:37:44;;;;;;;6.10;1.80;;;3.70;99.90;;;;;;5053860;28;20087;-76
2023/12/27 02:40:10;;;;;;;8.68;2.25;;;3.70;99.90;;;;;;5054668;28;20090;-76
2023/12/27 02:42:37;;;;;;;11.13;2.92;;;3.80;99.90;;;;;;5054345;28;20032;-76
2023/12/27 02:45:03;;;;;;;6.70;2.00;;;3.70;99.90;;;;;;5054033;28;20036;-76
2023/12/27 02:47:29;;;;;;;7.45;2.28;;;3.60;99.90;;;;;;5078030;22;20519;-72
2023/12/27 02:49:54;;;;;;;11.18;4.18;;;3.60;99.90;;;;;;5070455;28;20061;-71
2023/12/27 02:52:20;;;;;;;7.18;2.05;;;3.70;99.90;;;;;;5071865;28;20064;-70
2023/12/27 02:54:45;;;;;;;9.27;2.75;;;3.50;99.90;;;;;;5071941;28;20480;-70
2023/12/27 02:57:12;;;;;;;5.47;1.58;;;3.70;99.90;;;;;;5071420;28;20041;-70
2023/12/27 02:59:37;;;;;;;5.28;1.70;;;3.50;99.90;;;;;;5070155;28;20045;-70
2023/12/27 03:02:03;;;;;;;6.28;1.70;;;3.60;99.90;;;;;;5071240;28;20112;-70
2023/12/27 03:04:28;;;;;;;3.05;1.92;;;3.70;99.90;;;;;;5070794;28;20067;-71
2023/12/27 03:06:54;;;;;;;8.48;2.25;;;3.60;99.90;;;;;;5070415;28;20048;-70
2023/12/27 03:09:20;;;;;;;7.07;2.03;;;3.60;99.90;;;;;;5070309;28;20040;-70
2023/12/27 03:11:45;;;;;;;8.50;1.40;;;3.40;99.90;;;;;;5070614;28;20044;-70
2023/12/27 03:14:11;;;;;;;6.93;2.05;;;3.40;99.90;;;;;;5070253;28;20040;-70
2023/12/27 03:16:36;;;;;;;11.48;2.42;;;3.60;99.90;;;;;;5070207;28;20036;-70
2023/12/27 03:19:02;;;;;;;7.57;2.53;;;3.60;99.90;;;;;;5070074;28;20396;-70
2023/12/27 03:21:28;;;;;;;5.60;2.13;;;3.40;99.90;;;;;;5070317;28;20051;-71
2023/12/27 03:23:54;;;;;;;7.88;2.05;;;3.50;99.90;;;;;;5070041;28;20036;-70
2023/12/27 03:26:19;;;;;;;11.63;2.65;;;3.50;99.90;;;;;;5071911;28;20033;-70
2023/12/27 03:28:45;;;;;;;8.20;2.42;;;3.60;99.90;;;;;;5075209;28;20098;-70
2023/12/27 03:31:12;;;;;;;12.23;2.83;;;3.70;99.90;;;;;;5074168;28;20060;-70
2023/12/27 03:33:37;;;;;;;9.43;2.28;;;3.60;99.90;;;;;;5075684;28;20129;-70
2023/12/27 03:36:03;;;;;;;6.05;2.53;;;3.60;99.90;;;;;;5075546;28;20076;-70
2023/12/27 03:38:29;;;;;;;14.30;2.38;;;3.50;99.90;;;;;;5073999;28;20049;-70
2023/12/27 03:40:55;;;;;;;9.48;2.67;;;3.50;99.90;;;;;;5074288;28;20472;-71
2023/12/27 03:43:20;;;;;;;9.77;3.75;;;3.70;99.90;;;;;;5075417;28;20036;-71
2023/12/27 03:45:46;;;;;;;7.15;2.85;;;3.50;99.90;;;;;;5073958;28;20036;-71
2023/12/27 03:48:12;;;;;;;15.77;3.55;;;3.50;99.90;;;;;;5073577;28;20139;-71
2023/12/27 03:50:38;;;;;;;10.43;2.88;;;3.60;99.90;;;;;;5073896;28;20051;-71
2023/12/27 03:53:03;;;;;;;8.52;2.63;;;3.50;99.90;;;;;;5074304;28;20576;-70
2023/12/27 03:55:29;;;;;;;8.95;2.80;;;3.60;99.90;;;;;;5073754;28;20495;-70
2023/12/27 03:57:54;;;;;;;6.18;2.10;;;3.40;99.90;;;;;;5073477;28;20107;-70
2023/12/27 04:00:20;;;;;;;8.60;2.60;;;3.60;99.90;;;;;;5073721;28;20454;-70
2023/12/27 04:02:46;;;;;;;15.30;2.88;;;3.60;99.90;;;;;;5057037;28;20461;-70
2023/12/27 04:05:13;;;;;;;8.23;2.63;;;3.50;99.90;;;;;;5073688;28;20040;-71
2023/12/27 04:07:38;;;;;;;6.70;2.70;;;3.60;99.90;;;;;;5073257;28;20036;-71
2023/12/27 04:10:05;;;;;;;7.40;3.40;;;3.50;99.90;;;;;;5073812;28;20499;-70
2023/12/27 04:12:31;;;;;;;12.00;3.00;;;3.60;99.90;;;;;;5073748;28;20419;-71
2023/12/27 04:14:56;;;;;;;9.75;3.17;;;3.60;99.90;;;;;;5074603;28;20047;-70
2023/12/27 04:17:22;;;;;;;8.73;2.33;;;3.50;99.90;;;;;;5056510;28;20126;-70
2023/12/27 04:19:48;;;;;;;11.90;3.28;;;3.60;99.90;;;;;;5073423;28;20043;-71
2023/12/27 04:22:13;;;;;;;6.55;2.25;;;3.50;99.90;;;;;;5073391;28;20461;-71
2023/12/27 04:24:39;;;;;;;10.50;2.80;;;3.60;99.90;;;;;;5073235;28;20033;-71
2023/12/27 04:27:05;;;;;;;7.85;2.25;;;3.60;99.90;;;;;;5072982;28;20045;-70
2023/12/27 04:29:30;;;;;;;8.38;2.42;;;3.60;99.90;;;;;;5074305;28;20115;-70
2023/12/27 04:31:56;;;;;;;12.13;2.85;;;3.60;99.90;;;;;;5073284;28;20047;-71
2023/12/27 04:34:21;;;;;;;4.22;2.28;;;3.50;99.90;;;;;;5073261;28;20040;-71
2023/12/27 04:36:47;;;;;;;10.18;2.20;;;3.40;99.90;;;;;;5073213;28;20051;-71
2023/12/27 04:39:13;;;;;;;5.80;2.17;;;3.60;99.90;;;;;;5072612;28;20076;-71
2023/12/27 04:41:39;;;;;;;17.20;2.80;;;3.40;99.90;;;;;;5072979;28;20043;-70
2023/12/27 04:44:05;;;;;;;8.63;2.63;;;3.40;99.90;;;;;;5072870;28;20091;-70
2023/12/27 04:46:30;;;;;;;7.55;2.88;;;3.50;99.90;;;;;;5073011;28;20048;-70
2023/12/27 04:48:56;;;;;;;9.88;2.97;;;3.40;99.90;;;;;;5072851;28;20519;-70
2023/12/27 04:51:22;;;;;;;6.53;2.17;;;3.40;99.90;;;;;;5072817;28;20041;-70
2023/12/27 04:53:47;;;;;;;4.85;2.20;;;3.40;99.90;;;;;;5072745;28;20045;-70
2023/12/27 04:56:16;;;;;;;11.10;2.80;;;3.30;99.90;;;;;;5072590;28;20052;-70
2023/12/27 04:58:41;;;;;;;5.20;2.28;;;3.50;99.90;;;;;;5072398;28;20484;-71
2023/12/27 05:01:07;;;;;;;8.20;2.42;;;3.60;99.90;;;;;;5068489;28;20039;-70
2023/12/27 05:03:35;;;;;;;8.57;3.15;;;3.50;99.90;;;;;;5072928;28;20047;-70
2023/12/27 05:06:02;;;;;;;10.18;3.22;;;3.40;99.90;;;;;;5073722;28;20094;-70
2023/12/27 05:08:28;;;;;;;11.13;4.25;;;3.60;99.90;;;;;;5072014;28;20052;-70
2023/12/27 05:10:53;;;;;;;12.27;3.65;;;3.50;99.90;;;;;;5055622;28;20411;-70
2023/12/27 05:13:19;;;;;;;10.25;2.80;;;3.30;99.90;;;;;;5072222;28;20048;-70
2023/12/27 05:15:46;;;;;;;11.80;3.45;;;3.50;99.90;;;;;;5073619;28;20043;-71
2023/12/27 05:18:12;;;;;;;9.50;2.53;;;3.40;99.90;;;;;;5071883;28;20115;-70
2023/12/27 05:20:37;;;;;;;6.43;3.08;;;3.30;99.90;;;;;;5072426;28;20202;-70
2023/12/27 05:23:03;;;;;;;11.73;3.28;;;3.30;99.90;;;;;;5073534;28;20107;-70
2023/12/27 05:25:29;;;;;;;7.60;3.58;;;3.30;99.90;;;;;;5073326;28;20033;-70
2023/12/27 05:27:54;;;;;;;12.90;4.03;;;3.50;99.90;;;;;;5071273;28;20044;-70
2023/12/27 05:30:20;;;;;;;7.35;2.58;;;3.40;99.90;;;;;;5073222;28;20048;-70
2023/12/27 05:32:45;;;;;;;7.22;3.28;;;3.40;99.90;;;;;;5072054;28;20071;-70
2023/12/27 05:35:11;;;;;;;10.35;3.05;;;3.60;99.90;;;;;;5071907;28;20041;-71
2023/12/27 05:37:37;;;;;;;6.72;2.63;;;3.60;99.90;;;;;;5071386;28;20702;-70
2023/12/27 05:40:03;;;;;;;8.60;4.03;;;3.60;99.90;;;;;;5073115;28;20119;-70
2023/12/27 05:42:29;;;;;;;10.13;3.53;;;3.40;99.90;;;;;;5071762;28;20036;-71
2023/12/27 05:44:54;;;;;;;9.77;3.67;;;3.40;99.90;;;;;;5071712;28;20463;-70
2023/12/27 05:47:20;;;;;;;7.15;3.17;;;3.60;99.90;;;;;;5071224;28;20482;-70
2023/12/27 05:49:46;;;;;;;12.13;3.90;;;3.60;99.90;;;;;;5071005;28;20032;-70
2023/12/27 05:52:11;;;;;;;9.90;3.60;;;3.30;99.90;;;;;;5071940;28;20044;-70
2023/12/27 05:54:37;;;;;;;6.28;3.40;;;3.50;99.90;;;;;;5071457;28;20491;-71
2023/12/27 05:57:03;;;;;;;12.18;4.78;;;3.40;99.90;;;;;;5071124;28;20487;-70
2023/12/27 05:59:29;;;;;;;10.70;4.07;;;3.40;99.90;;;;;;5071696;28;20040;-70
2023/12/27 06:01:54;;;;;;;7.68;3.78;;;3.30;99.90;;;;;;5071618;28;20036;-70
2023/12/27 06:04:21;;;;;;;13.48;4.05;;;3.60;99.90;;;;;;5071429;28;20036;-70
2023/12/27 06:06:49;;;;;;;11.38;3.97;;;3.40;99.90;;;;;;5070663;28;20032;-70
2023/12/27 06:09:16;;;;;;;10.35;4.07;;;3.50;99.90;;;;;;5070843;28;20090;-70
2023/12/27 06:11:41;;;;;;;8.52;4.57;;;3.50;99.90;;;;;;5063029;28;20102;-71
2023/12/27 06:14:07;;;;;;;12.73;5.18;;;3.50;99.90;;;;;;5070365;28;20049;-70
2023/12/27 06:16:33;;;;;;;13.32;4.97;;;3.60;99.90;;;;;;5070976;28;20046;-70
2023/12/27 06:19:00;;;;;;;7.18;4.22;;;3.40;99.90;;;;;;5070892;28;20099;-70
2023/12/27 06:21:26;;;;;;;15.13;6.00;;;3.40;99.90;;;;;;5071212;28;20043;-70
2023/12/27 06:23:51;;;;;;;10.52;5.70;;;3.60;99.90;;;;;;5070950;28;20032;-71
2023/12/27 06:26:17;;;;;;;20.17;5.38;;;3.60;99.90;;;;;;5071924;28;20044;-70
2023/12/27 06:28:44;;;;;;;15.63;4.68;;;3.60;99.90;;;;;;5070716;28;20033;-70
2023/12/27 06:31:10;;;;;;;11.15;5.88;;;3.60;99.90;;;;;;5054292;28;20070;-71
2023/12/27 06:33:36;;;;;;;8.18;4.43;;;3.60;99.90;;;;;;5070914;28;20043;-71
2023/12/27 06:36:05;;;;;;;11.40;5.22;;;3.60;99.90;;;;;;5070622;28;20413;-71
2023/12/27 06:38:31;;;;;;;12.73;5.07;;;3.60;99.90;;;;;;5070137;28;20043;-71
2023/12/27 06:40:57;;;;;;;9.98;5.53;;;3.70;99.90;;;;;;5070985;28;20400;-70
2023/12/27 06:43:23;;;;;;;8.48;4.50;;;3.40;99.90;;;;;;5070748;28;20052;-71
2023/12/27 06:45:49;;;;;;;11.93;4.93;;;3.40;99.90;;;;;;5070625;28;20047;-71
2023/12/27 06:48:15;;;;;;;15.23;5.05;;;3.40;99.90;;;;;;5069623;28;20048;-70
2023/12/27 06:50:44;;;;;;;10.32;5.30;;;3.70;99.90;;;;;;5070448;28;20522;-71
2023/12/27 06:53:10;;;;;;;10.55;4.72;;;3.50;99.90;;;;;;5070701;28;20527;-70
2023/12/27 06:55:36;;;;;;;10.57;4.78;;;3.80;99.90;;;;;;5070476;28;20037;-71
2023/12/27 06:58:01;;;;;;;14.27;5.25;;;3.80;99.90;;;;;;5053423;28;20043;-70
2023/12/27 07:00:30;;;;;;;12.90;4.90;;;3.70;99.90;;;;;;5053711;28;20098;-71
2023/12/27 07:02:56;;;;;;;11.07;5.18;;;3.90;99.90;;;;;;5070298;28;20044;-71
2023/12/27 07:05:21;;;;;;;11.25;5.72;;;3.60;99.90;;;;;;5070449;28;20496;-71
2023/12/27 07:07:47;;;;;;;11.25;5.00;;;3.90;99.90;;;;;;5069928;28;20476;-71
2023/12/27 07:10:13;;;;;;;9.73;5.25;;;3.80;99.90;;;;;;5070408;28;20036;-71
2023/12/27 07:12:39;;;;;;;12.40;5.15;;;3.80;99.90;;;;;;5070403;28;20072;-70
2023/12/27 07:15:07;;;;;;;12.27;5.05;;;3.70;99.90;;;;;;5070292;28;20040;-71
2023/12/27 07:17:33;;;;;;;13.70;5.75;;;3.90;99.90;;;;;;5071378;28;20045;-70
2023/12/27 07:19:59;;;;;;;10.88;5.55;;;3.90;99.90;;;;;;5070589;28;20519;-71
2023/12/27 07:22:25;;;;;;;13.48;5.82;;;3.80;99.90;;;;;;5070060;28;20044;-71
2023/12/27 07:24:50;;;;;;;13.27;5.70;;;3.90;99.90;;;;;;5070119;28;20458;-71
2023/12/27 07:27:16;;;;;;;17.88;5.10;;;3.70;99.90;;;;;;5069821;28;20036;-71
2023/12/27 07:29:42;;;;;;;15.93;5.40;;;3.70;99.90;;;;;;5070148;28;20515;-71
2023/12/27 07:32:07;;;;;;;6.03;4.38;;;3.80;99.90;;;;;;5070137;28;20079;-70
2023/12/27 07:34:33;;;;;;;12.93;5.60;;;3.80;99.90;;;;;;5070094;28;20041;-71
2023/12/27 07:36:59;;;;;;;8.80;5.50;;;3.80;99.90;;;;;;5070928;28;20033;-71
2023/12/27 07:39:25;;;;;;;12.93;6.15;;;3.80;99.90;;;;;;5071557;28;20115;-71
2023/12/27 07:41:50;;;;;;;8.52;5.82;;;4.00;99.90;;;;;;5070350;28;20064;-71
2023/12/27 07:44:16;;;;;;;14.80;5.18;;;4.00;99.90;;;;;;5071227;28;20500;-70
2023/12/27 07:46:43;;;;;;;9.30;5.00;;;4.00;99.90;;;;;;5069934;28;20036;-71
2023/12/27 07:49:08;;;;;;;10.68;5.03;;;4.10;99.90;;;;;;5069175;28;20044;-71
2023/12/27 07:51:34;;;;;;;10.13;4.50;;;3.90;99.90;;;;;;5069270;28;20040;-70
2023/12/27 07:54:00;;;;;;;14.65;5.13;;;3.90;99.90;;;;;;5069871;28;20040;-70
2023/12/27 07:56:26;;;;;;;8.77;4.43;;;4.00;99.90;;;;;;5070715;28;20138;-70
2023/12/27 07:58:53;;;;;;;8.02;4.75;;;4.10;99.90;;;;;;5070278;28;20115;-70
2023/12/27 08:01:19;;;;;;;15.70;5.03;;;3.90;99.90;;;;;;5071043;28;20055;-70
2023/12/27 08:03:45;;;;;;;10.13;4.53;;;4.00;99.90;;;;;;5069825;28;20502;-71
2023/12/27 08:06:11;;;;;;;9.65;5.32;;;4.00;99.90;;;;;;5069329;28;20032;-71
2023/12/27 08:08:38;;;;;;;18.23;5.45;;;4.30;99.90;;;;;;5069634;28;20086;-71
2023/12/27 08:11:04;;;;;;;14.85;5.05;;;4.00;99.90;;;;;;5069813;28;20068;-71
2023/12/27 08:13:34;;;;;;;9.70;4.90;;;4.30;99.90;;;;;;5072076;28;20040;-71
2023/12/27 08:16:00;;;;;;;14.27;5.15;;;4.20;99.90;;;;;;5073225;28;20090;-71
2023/12/27 08:18:26;;;;;;;11.32;4.68;;;4.30;99.90;;;;;;5073066;28;20044;-71
2023/12/27 08:20:52;;;;;;;12.45;5.13;;;4.30;99.90;;;;;;5073159;28;20553;-71
2023/12/27 08:23:17;;;;;;;8.55;3.97;;;4.20;99.90;;;;;;5073220;28;20082;-70
2023/12/27 08:25:44;;;;;;;8.38;4.68;;;4.40;99.90;;;;;;5074609;28;20098;-71
2023/12/27 08:28:10;;;;;;;8.93;4.75;;;4.50;99.90;;;;;;5072942;28;20082;-71
2023/12/27 08:30:36;;;;;;;15.85;4.35;;;4.50;99.90;;;;;;5073283;28;20068;-70
2023/12/27 08:33:06;;;;;;;6.35;3.78;;;4.50;99.90;;;;;;5056492;28;20033;-71
2023/12/27 08:35:35;;;;;;;13.35;3.83;;;4.30;99.90;;;;;;5056340;28;20040;-71
2023/12/27 08:38:01;;;;;;;14.02;4.68;;;4.30;99.90;;;;;;5072656;28;20087;-70
2023/12/27 08:40:26;;;;;;;14.35;4.55;;;4.30;99.90;;;;;;5073061;28;20044;-71
2023/12/27 08:42:53;;;;;;;5.10;3.42;;;4.40;99.90;;;;;;5073297;28;20404;-70
2023/12/27 08:45:18;;;;;;;14.98;4.05;;;4.60;99.90;;;;;;5072269;28;20052;-70
2023/12/27 08:47:45;;;;;;;11.52;4.55;;;4.60;99.90;;;;;;5071833;28;20047;-72
2023/12/27 08:50:11;;;;;;;7.15;3.85;;;4.60;99.90;;;;;;5108697;22;20056;-77
2023/12/27 08:52:38;;;;;;;12.48;4.22;;;4.70;99.90;;;;;;5091640;28;20036;-74
2023/12/27 08:55:10;;;;;;;15.73;5.00;;;4.60;99.90;;;;;;5091721;28;20151;-74
2023/12/27 08:57:36;;;;;;;10.27;4.20;;;4.60;99.90;;;;;;5075019;28;20063;-74
2023/12/27 09:00:04;;;;;;;13.38;4.18;;;4.60;99.90;;;;;;5091428;28;20503;-74
2023/12/27 09:02:30;;;;;;;6.50;3.80;;;4.60;99.90;;;;;;5091912;28;20088;-74
2023/12/27 09:04:55;;;;;;;11.20;3.88;;;4.70;99.90;;;;;;5092351;28;20508;-75
2023/12/27 09:07:21;;;;;;;11.20;3.30;;;4.60;99.90;;;;;;5092353;28;20135;-75
2023/12/27 09:09:46;;;;;;;12.18;3.88;;;4.80;99.90;;;;;;5093877;28;20040;-74
2023/12/27 09:12:12;;;;;;;12.52;3.38;;;4.80;99.90;;;;;;5092817;28;20032;-75
2023/12/27 09:14:39;;;;;;;13.73;4.25;;;4.60;99.90;;;;;;5093989;28;20044;-74
2023/12/27 09:17:05;;;;;;;12.55;4.05;;;4.80;99.90;;;;;;5092551;28;20126;-74
2023/12/27 09:19:31;;;;;;;15.77;3.50;;;4.70;99.90;;;;;;5093837;28;20063;-75
2023/12/27 09:21:56;;;;;;;11.93;3.75;;;4.80;99.90;;;;;;5092897;28;20044;-75
2023/12/27 09:24:22;;;;;;;10.05;3.50;;;5.00;99.90;;;;;;5091900;28;20562;-75
2023/12/27 09:26:48;;;;;;;9.95;4.55;;;4.90;99.90;;;;;;5092562;28;20081;-75
2023/12/27 09:29:14;;;;;;;7.50;3.63;;;4.90;99.90;;;;;;5092411;28;20102;-75
2023/12/27 09:31:41;;;;;;;9.30;2.88;;;4.90;99.90;;;;;;5084253;28;20399;-74
2023/12/27 09:34:07;;;;;;;7.13;2.80;;;5.00;99.90;;;;;;5089533;28;20036;-74
2023/12/27 09:36:32;;;;;;;10.35;3.78;;;4.90;99.90;;;;;;5088209;28;20028;-74
2023/12/27 09:38:59;;;;;;;14.02;3.83;;;5.00;99.90;;;;;;5085790;28;20036;-74
2023/12/27 09:41:25;;;;;;;11.95;3.72;;;5.10;99.90;;;;;;5074214;28;20039;-74
2023/12/27 09:43:53;;;;;;;18.50;5.75;;;5.10;99.90;;;;;;5086225;28;20107;-74
2023/12/27 09:46:20;;;;;;;11.13;3.08;;;5.20;99.90;;;;;;5082320;28;20066;-75
2023/12/27 09:48:45;;;;;;;8.35;3.22;;;5.10;99.90;;;;;;5079746;28;20067;-75
2023/12/27 09:51:11;;;;;;;12.15;3.50;;;5.10;99.90;;;;;;5071817;28;20491;-75
2023/12/27 09:53:40;;;;;;;9.57;3.78;;;5.20;99.90;;;;;;5088472;28;20032;-75
2023/12/27 09:56:07;;;;;;;8.60;3.20;;;5.10;99.90;;;;;;5091485;28;20091;-75
2023/12/27 09:58:36;;;;;;;13.18;3.67;;;5.20;99.90;;;;;;5091841;28;20047;-75
2023/12/27 10:01:05;;;;;;;11.15;3.25;;;5.20;99.90;;;;;;5091747;28;20040;-76
2023/12/27 10:03:38;;;;;;;9.85;4.40;;;5.10;99.90;;;;;;5074211;28;20028;-75
2023/12/27 10:06:13;;;;;;;13.15;3.47;;;5.20;99.90;;;;;;5088422;28;20518;-75
2023/12/27 10:08:41;;;;;;;11.02;3.83;;;5.20;99.90;;;;;;5092499;28;20046;-75
2023/12/27 10:11:09;;;;;;;8.73;3.47;;;5.20;99.90;;;;;;5082009;28;20036;-77
2023/12/27 10:13:42;;;;;;;9.60;4.03;;;5.20;99.90;;;;;;5081129;28;20036;-75
2023/12/27 10:16:07;;;;;;;11.00;3.90;;;5.30;99.90;;;;;;5085787;28;20380;-75
2023/12/27 10:18:33;;;;;;;13.40;5.32;;;5.40;99.90;;;;;;5089566;28;20051;-75
2023/12/27 10:21:00;;;;;;;16.10;6.50;;;5.40;99.90;;;;;;5090710;28;20039;-75
2023/12/27 10:23:26;;;;;;;15.25;7.47;;;5.30;99.90;;;;;;5091394;28;20040;-75
2023/12/27 10:25:52;;;;;;;19.90;10.27;;;5.50;99.90;;;;;;5091308;28;20574;-75
2023/12/27 10:28:24;;;;;;;24.52;10.55;;;5.40;99.90;;;;;;5091155;28;20407;-76
2023/12/27 10:30:51;;;;;;;21.38;10.95;;;5.40;99.90;;;;;;5091286;28;20491;-76
2023/12/27 10:33:20;;;;;;;21.42;10.98;;;5.50;99.90;;;;;;5091141;28;20047;-77
2023/12/27 10:35:49;;;;;;;18.35;10.77;;;5.40;99.90;;;;;;5074126;28;20040;-75
2023/12/27 10:38:15;;;;;;;21.40;12.55;;;5.50;99.90;;;;;;5090365;28;20674;-75
2023/12/27 10:40:41;;;;;;;20.88;11.48;;;5.50;99.90;;;;;;5089638;28;20039;-75
2023/12/27 10:43:08;;;;;;;26.05;12.75;;;5.50;99.90;;;;;;5090805;28;20040;-74
2023/12/27 10:45:35;;;;;;;20.27;11.25;;;5.70;99.90;;;;;;5091896;28;20083;-75
2023/12/27 10:48:05;;;;;;;17.98;9.40;;;5.60;99.90;;;;;;5090893;28;20476;-76
2023/12/27 10:50:32;;;;;;;14.95;7.00;;;5.60;99.90;;;;;;5090246;28;20035;-75
2023/12/27 10:53:03;;;;;;;12.80;6.80;;;5.60;99.90;;;;;;5089848;28;20115;-76
2023/12/27 10:55:30;;;;;;;11.48;5.68;;;5.80;99.90;;;;;;5089308;28;20040;-75
2023/12/27 10:57:59;;;;;;;10.60;5.90;;;5.80;99.90;;;;;;5090832;28;20036;-75
2023/12/27 11:00:25;;;;;;;23.02;6.03;;;5.80;99.90;;;;;;5089742;28;20039;-74
2023/12/27 11:02:52;;;;;;;11.38;5.43;;;5.90;99.90;;;;;;5073642;28;20044;-76
2023/12/27 11:05:23;;;;;;;17.67;5.95;;;5.90;99.90;;;;;;5090868;28;20043;-76
2023/12/27 11:07:52;;;;;;;22.25;5.68;;;5.90;99.90;;;;;;5090930;28;20132;-76
2023/12/27 11:10:19;;;;;;;18.20;5.60;;;5.90;99.90;;;;;;5090595;28;20398;-75
2023/12/27 11:12:46;;;;;;;12.70;7.28;;;6.00;99.90;;;;;;5089822;28;20735;-76
2023/12/27 11:15:19;;;;;;;19.65;6.28;;;6.00;99.90;;;;;;5089916;28;20546;-76
2023/12/27 11:17:48;;;;;;;17.80;6.60;;;6.00;99.90;;;;;;5072273;28;20103;-75
2023/12/27 11:20:14;;;;;;;14.82;5.85;;;5.90;99.90;;;;;;5089595;28;20024;-75
2023/12/27 11:22:42;;;;;;;14.00;5.57;;;6.10;99.90;;;;;;5090469;28;20093;-75
2023/12/27 11:25:08;;;;;;;13.57;7.00;;;6.00;99.90;;;;;;5089219;28;20089;-76
2023/12/27 11:27:35;;;;;;;15.75;7.05;;;6.00;99.90;;;;;;5089689;28;20550;-76
2023/12/27 11:30:02;;;;;;;11.60;5.80;;;6.00;99.90;;;;;;5090171;28;20043;-75
2023/12/27 11:32:30;;;;;;;14.25;6.47;;;6.00;99.90;;;;;;5090646;28;20090;-75
2023/12/27 11:34:56;;;;;;;11.65;6.45;;;5.90;99.90;;;;;;5073585;28;20036;-76
2023/12/27 11:37:23;;;;;;;13.77;6.18;;;6.10;99.90;;;;;;5092098;28;20044;-75
2023/12/27 11:39:51;;;;;;;15.73;6.60;;;5.90;99.90;;;;;;5073551;28;20601;-76
2023/12/27 11:42:17;;;;;;;13.38;6.07;;;5.90;99.90;;;;;;5091867;28;20072;-75
2023/12/27 11:44:54;;;;;;;14.63;6.93;;;6.10;99.90;;;;;;5085636;28;20060;-75
2023/12/27 11:47:20;;;;;;;16.00;6.85;;;6.00;99.90;;;;;;5087763;28;20400;-74
2023/12/27 11:50:14;;;;;;;15.95;7.88;;;6.00;99.90;;;;;;5093795;28;20040;-75
2023/12/27 11:52:46;;;;;;;14.98;6.38;;;6.10;99.90;;;;;;5094034;28;20137;-75
2023/12/27 11:55:22;;;;;;;15.03;8.03;;;6.00;99.90;;;;;;5094021;28;20027;-75
2023/12/27 11:57:57;;;;;;;24.35;8.32;;;6.00;99.90;;;;;;5076703;28;20050;-78
2023/12/27 12:00:25;;;;;;;16.88;8.00;;;6.10;99.90;;;;;;5093608;28;20077;-77
2023/12/27 12:02:57;;;;;;;21.77;8.38;;;5.80;99.90;;;;;;5094136;28;20040;-77
2023/12/27 12:06:07;;;;;;;16.50;7.50;;;6.00;99.90;;;;;;5094332;28;20047;-77
2023/12/27 12:08:44;;;;;;;13.18;7.57;;;5.80;99.90;;;;;;5072616;28;20522;-76
2023/12/27 12:11:14;;;;;;;19.98;7.70;;;5.80;99.90;;;;;;5094683;28;20044;-74
2023/12/27 12:13:39;;;;;;;18.33;7.85;;;5.80;99.90;;;;;;5095639;28;20036;-75
2023/12/27 12:16:06;;;;;;;17.73;8.00;;;5.90;99.90;;;;;;5094394;28;20395;-73
2023/12/27 12:18:34;;;;;;;20.33;8.20;;;6.00;99.90;;;;;;5094957;28;20135;-74
2023/12/27 12:20:59;;;;;;;13.93;7.85;;;5.80;99.90;;;;;;5093993;28;20040;-74
2023/12/27 12:23:29;;;;;;;17.02;9.63;;;5.80;99.90;;;;;;5093733;28;20089;-76
2023/12/27 12:26:00;;;;;;;17.95;9.48;;;5.80;99.90;;;;;;5093134;28;20071;-76
2023/12/27 12:28:29;;;;;;;15.55;7.90;;;5.90;99.90;;;;;;5108239;28;20445;-76
2023/12/27 12:30:59;;;;;;;16.33;8.05;;;5.80;99.90;;;;;;5093455;28;20043;-76
2023/12/27 12:33:25;;;;;;;17.98;8.77;;;5.90;99.90;;;;;;5092189;28;20054;-77
2023/12/27 12:35:53;;;;;;;18.77;8.60;;;5.80;99.90;;;;;;5075776;28;20037;-76
2023/12/27 12:38:19;;;;;;;16.13;9.27;;;5.70;99.90;;;;;;5072850;28;20044;-76
2023/12/27 12:40:45;;;;;;;19.45;9.30;;;5.70;99.90;;;;;;5056092;28;20032;-76
2023/12/27 12:43:13;;;;;;;21.98;9.23;;;6.00;99.90;;;;;;5091895;28;20593;-75
2023/12/27 12:45:39;;;;;;;19.33;8.80;;;6.00;99.90;;;;;;5091544;28;20115;-76
2023/12/27 12:48:05;;;;;;;17.67;9.68;;;6.10;99.90;;;;;;5086690;28;20127;-76